createdAt,value
2023-06-29T00:00:35.461Z,79.42
2023-06-29T00:03:05.768Z,79.79
2023-06-29T00:05:33.933Z,79.68
2023-06-29T00:08:01.598Z,79.90
2023-06-29T00:10:30.039Z,79.85
2023-06-29T00:12:58.222Z,81.01
2023-06-29T00:15:25.848Z,80.98
2023-06-29T00:17:55.283Z,81.40
2023-06-29T00:20:29.422Z,81.58
2023-06-29T00:22:58.135Z,81.37
2023-06-29T00:25:25.786Z,81.17
2023-06-29T00:27:53.628Z,81.60
2023-06-29T00:30:21.637Z,81.99
2023-06-29T00:32:49.278Z,82.15
2023-06-29T00:35:17.078Z,81.88
2023-06-29T00:37:46.138Z,81.69
2023-06-29T00:40:14.631Z,82.01
2023-06-29T00:42:43.185Z,81.97
2023-06-29T00:45:11.632Z,81.95
2023-06-29T00:47:39.331Z,82.30
2023-06-29T00:50:08.151Z,82.63
2023-06-29T00:52:36.273Z,82.36
2023-06-29T00:55:05.926Z,82.80
2023-06-29T00:57:33.577Z,83.70
2023-06-29T01:00:02.028Z,83.78
2023-06-29T01:02:31.134Z,84.71
2023-06-29T01:04:59.389Z,84.28
2023-06-29T01:07:31.629Z,84.66
2023-06-29T01:10:00.810Z,85.04
2023-06-29T01:12:30.079Z,84.54
2023-06-29T01:14:58.302Z,84.82
2023-06-29T01:17:28.412Z,85.05
2023-06-29T01:19:56.775Z,84.52
2023-06-29T01:22:29.845Z,84.55
2023-06-29T01:25:00.923Z,85.46
2023-06-29T01:27:28.924Z,86.24
2023-06-29T01:30:02.428Z,85.47
2023-06-29T01:32:35.189Z,85.68
2023-06-29T01:35:03.507Z,85.97
2023-06-29T01:37:37.648Z,86.49
2023-06-29T01:40:10.115Z,86.08
2023-06-29T01:42:38.424Z,85.74
2023-06-29T01:45:08.388Z,86.41
2023-06-29T01:47:36.538Z,86.28
2023-06-29T01:50:05.114Z,86.47
2023-06-29T01:52:32.837Z,86.12
2023-06-29T01:55:00.609Z,86.78
2023-06-29T01:57:29.789Z,86.27
2023-06-29T01:59:57.444Z,86.97
2023-06-29T02:02:25.221Z,86.70
2023-06-29T02:04:53.067Z,86.96
2023-06-29T02:07:20.807Z,87.42
2023-06-29T02:09:48.550Z,87.55
2023-06-29T02:12:17.140Z,87.24
2023-06-29T02:14:46.226Z,87.19
2023-06-29T02:17:13.944Z,86.94
2023-06-29T02:19:41.563Z,87.11
2023-06-29T02:22:09.200Z,86.77
2023-06-29T02:24:36.888Z,86.80
2023-06-29T02:27:04.997Z,86.54
2023-06-29T02:29:32.777Z,87.19
2023-06-29T02:32:01.821Z,88.17
2023-06-29T02:34:31.183Z,87.77
2023-06-29T02:36:58.923Z,88.85
2023-06-29T02:39:26.573Z,89.35
2023-06-29T02:41:54.206Z,89.41
2023-06-29T02:44:22.244Z,89.38
2023-06-29T02:46:49.892Z,89.39
2023-06-29T02:49:19.002Z,89.29
2023-06-29T02:51:46.720Z,89.06
2023-06-29T02:54:14.372Z,89.37
2023-06-29T02:56:42.086Z,89.91
2023-06-29T02:59:09.878Z,90.41
2023-06-29T03:01:37.526Z,90.04
2023-06-29T03:04:05.553Z,89.66
2023-06-29T03:06:34.617Z,89.58
2023-06-29T03:09:02.282Z,89.79
2023-06-29T03:11:30.004Z,90.45
2023-06-29T03:13:58.938Z,89.70
2023-06-29T03:16:26.671Z,90.08
2023-06-29T03:18:54.494Z,89.27
2023-06-29T03:21:22.123Z,89.90
2023-06-29T03:23:51.158Z,90.44
2023-06-29T03:26:18.986Z,90.85
2023-06-29T03:28:46.643Z,91.16
2023-06-29T03:31:15.171Z,90.57
2023-06-29T03:33:42.887Z,91.19
2023-06-29T03:36:12.507Z,90.83
2023-06-29T03:38:40.187Z,90.81
2023-06-29T03:41:09.387Z,90.59
2023-06-29T03:43:37.032Z,90.69
2023-06-29T03:46:04.672Z,90.40
2023-06-29T03:48:32.655Z,89.91
2023-06-29T03:51:00.444Z,89.73
2023-06-29T03:53:28.183Z,89.52
2023-06-29T03:55:55.848Z,89.54
2023-06-29T03:58:25.040Z,88.41
2023-06-29T04:00:53.044Z,89.38
2023-06-29T04:03:20.889Z,88.81
2023-06-29T04:05:48.816Z,88.68
2023-06-29T04:08:16.501Z,88.11
2023-06-29T04:10:44.320Z,87.92
2023-06-29T04:13:12.014Z,88.25
2023-06-29T04:15:41.392Z,88.51
2023-06-29T04:18:09.546Z,88.77
2023-06-29T04:20:38.949Z,88.14
2023-06-29T04:23:06.791Z,87.81
2023-06-29T04:25:34.853Z,88.94
2023-06-29T04:28:02.538Z,88.79
2023-06-29T04:30:30.230Z,88.81
2023-06-29T04:33:10.821Z,88.54
2023-06-29T04:35:40.546Z,88.39
2023-06-29T04:38:08.772Z,89.75
2023-06-29T04:40:36.533Z,89.05
2023-06-29T04:43:04.441Z,89.47
2023-06-29T04:45:34.209Z,88.86
2023-06-29T04:48:03.612Z,88.72
2023-06-29T04:50:36.747Z,87.91
2023-06-29T04:53:10.265Z,87.43
2023-06-29T04:55:38.873Z,87.07
2023-06-29T04:58:06.750Z,87.11
2023-06-29T05:00:34.446Z,86.59
2023-06-29T05:03:03.844Z,86.23
2023-06-29T05:05:31.627Z,86.80
2023-06-29T05:07:59.333Z,86.32
2023-06-29T05:10:27.868Z,86.96
2023-06-29T05:12:55.500Z,87.10
2023-06-29T05:15:23.198Z,87.32
2023-06-29T05:17:50.974Z,87.14
2023-06-29T05:20:20.339Z,85.55
2023-06-29T05:22:48.391Z,85.74
2023-06-29T05:25:16.452Z,86.23
2023-06-29T05:27:44.159Z,85.85
2023-06-29T05:30:13.404Z,84.87
2023-06-29T05:32:41.148Z,84.48
2023-06-29T05:35:09.365Z,83.15
2023-06-29T05:37:38.408Z,82.30
2023-06-29T05:40:07.781Z,82.18
2023-06-29T05:42:35.439Z,81.77
2023-06-29T05:45:04.248Z,81.28
2023-06-29T05:47:32.003Z,81.57
2023-06-29T05:49:59.732Z,81.43
2023-06-29T05:52:27.427Z,78.68
2023-06-29T05:54:56.476Z,79.60
2023-06-29T05:57:24.137Z,80.67
2023-06-29T05:59:52.416Z,81.32
2023-06-29T06:02:20.252Z,79.96
2023-06-29T06:04:47.936Z,79.65
2023-06-29T06:07:16.161Z,79.22
2023-06-29T06:09:43.951Z,79.25
2023-06-29T06:12:13.189Z,78.45
2023-06-29T06:14:40.856Z,77.85
2023-06-29T06:17:08.800Z,77.57
2023-06-29T06:19:36.470Z,76.31
2023-06-29T06:22:04.508Z,76.74
2023-06-29T06:24:32.313Z,75.78
2023-06-29T06:26:59.922Z,76.77
2023-06-29T06:29:29.005Z,75.74
2023-06-29T06:31:57.037Z,76.63
2023-06-29T06:34:24.729Z,76.76
2023-06-29T06:36:53.562Z,76.42
2023-06-29T06:39:21.539Z,76.49
2023-06-29T06:41:49.170Z,77.00
2023-06-29T06:44:16.900Z,77.08
2023-06-29T06:46:46.068Z,76.45
2023-06-29T06:49:14.460Z,76.81
2023-06-29T06:51:42.154Z,75.63
2023-06-29T06:54:09.820Z,75.44
2023-06-29T06:56:38.536Z,75.31
2023-06-29T06:59:08.135Z,75.20
2023-06-29T07:01:36.083Z,75.44
2023-06-29T07:04:05.452Z,73.92
2023-06-29T07:06:34.759Z,74.21
2023-06-29T07:09:02.420Z,72.84
2023-06-29T07:11:30.142Z,71.98
2023-06-29T07:13:57.803Z,71.91
2023-06-29T07:16:26.535Z,71.74
2023-06-29T07:21:36.850Z,70.66
2023-06-29T07:24:08.141Z,69.88
2023-06-29T07:26:36.524Z,67.79
2023-06-29T07:29:05.862Z,67.96
2023-06-29T07:31:33.876Z,68.55
2023-06-29T07:34:01.729Z,68.83
2023-06-29T07:36:31.293Z,69.30
2023-06-29T07:38:59.005Z,67.88
2023-06-29T07:41:27.328Z,67.73
2023-06-29T07:43:56.683Z,67.70
2023-06-29T07:46:24.755Z,66.98
2023-06-29T07:48:53.510Z,66.78
2023-06-29T07:51:21.476Z,65.84
2023-06-29T07:53:51.523Z,64.87
2023-06-29T07:56:19.877Z,65.67
2023-06-29T07:58:47.942Z,65.16
2023-06-29T08:01:15.691Z,63.84
2023-06-29T08:04:01.185Z,63.33
2023-06-29T08:09:03.052Z,62.74
2023-06-29T08:11:30.968Z,62.12
2023-06-29T08:13:58.850Z,61.51
2023-06-29T08:16:26.676Z,61.32
2023-06-29T08:18:54.499Z,62.08
2023-06-29T08:21:22.282Z,62.37
2023-06-29T08:23:51.672Z,61.34
2023-06-29T08:26:20.775Z,61.04
2023-06-29T08:28:48.385Z,60.58
2023-06-29T08:31:16.162Z,60.85
2023-06-29T08:33:44.824Z,61.94
2023-06-29T08:36:12.550Z,60.16
2023-06-29T08:38:40.162Z,61.83
2023-06-29T08:41:07.800Z,61.82
2023-06-29T08:43:36.802Z,60.55
2023-06-29T08:46:04.931Z,60.16
2023-06-29T08:48:33.719Z,59.92
2023-06-29T08:51:04.753Z,58.91
2023-06-29T08:53:32.657Z,58.54
2023-06-29T08:56:01.178Z,58.06
2023-06-29T08:58:28.773Z,58.21
2023-06-29T09:00:58.372Z,57.64
2023-06-29T09:03:26.544Z,57.77
2023-06-29T09:05:55.705Z,57.36
2023-06-29T09:08:24.760Z,57.74
2023-06-29T09:10:52.440Z,57.46
2023-06-29T09:13:20.581Z,56.50
2023-06-29T09:15:49.666Z,56.01
2023-06-29T09:18:23.967Z,55.97
2023-06-29T09:20:52.431Z,55.43
2023-06-29T09:23:20.082Z,55.12
2023-06-29T09:25:48.108Z,54.11
2023-06-29T09:28:16.119Z,55.47
2023-06-29T09:30:44.243Z,56.23
2023-06-29T09:33:13.052Z,55.16
2023-06-29T09:35:46.336Z,54.50
2023-06-29T09:38:15.212Z,54.00
2023-06-29T09:40:52.514Z,54.98
2023-06-29T09:43:22.202Z,55.74
2023-06-29T09:45:50.159Z,54.35
2023-06-29T09:50:53.530Z,54.66
2023-06-29T09:53:30.134Z,54.04
2023-06-29T09:55:59.514Z,54.56
2023-06-29T09:58:28.389Z,54.86
2023-06-29T10:00:59.228Z,55.11
2023-06-29T10:03:27.776Z,54.56
2023-06-29T10:06:12.772Z,52.69
2023-06-29T10:08:41.513Z,54.33
2023-06-29T10:11:09.398Z,53.40
2023-06-29T10:13:39.779Z,54.00
2023-06-29T10:16:09.586Z,54.71
2023-06-29T10:18:39.969Z,53.80
2023-06-29T10:21:09.131Z,52.81
2023-06-29T10:23:37.323Z,53.93
2023-06-29T10:26:06.977Z,55.13
2023-06-29T10:28:35.773Z,55.14
2023-06-29T10:31:03.612Z,54.64
2023-06-29T10:33:31.461Z,54.63
2023-06-29T10:35:59.992Z,55.06
2023-06-29T10:38:34.567Z,55.56
2023-06-29T10:41:02.612Z,54.67
2023-06-29T10:43:30.410Z,55.35
2023-06-29T10:45:58.086Z,55.56
2023-06-29T10:48:47.224Z,55.63
2023-06-29T10:51:14.966Z,55.65
2023-06-29T10:53:44.030Z,56.62
2023-06-29T10:56:30.235Z,55.96
2023-06-29T10:58:57.881Z,57.13
2023-06-29T11:01:25.906Z,56.72
2023-06-29T11:03:53.799Z,56.90
2023-06-29T11:09:14.189Z,58.81
2023-06-29T11:11:42.037Z,57.55
2023-06-29T11:14:12.511Z,58.32
2023-06-29T11:16:40.568Z,57.47
2023-06-29T11:19:11.026Z,58.21
2023-06-29T11:21:42.060Z,58.54
2023-06-29T11:24:10.732Z,59.12
2023-06-29T11:26:39.954Z,59.38
2023-06-29T11:29:08.825Z,60.15
2023-06-29T11:31:36.540Z,59.48
2023-06-29T11:34:04.312Z,58.91
2023-06-29T11:36:34.085Z,59.94
2023-06-29T11:39:06.052Z,60.56
2023-06-29T11:41:33.724Z,59.58
2023-06-29T11:44:03.168Z,59.80
2023-06-29T11:46:34.315Z,60.03
2023-06-29T11:49:02.379Z,59.68
2023-06-29T11:51:30.544Z,59.60
2023-06-29T11:54:01.493Z,58.45
2023-06-29T11:56:36.494Z,58.73
2023-06-29T11:59:08.134Z,58.80
2023-06-29T12:01:36.424Z,58.51
2023-06-29T12:04:05.952Z,57.93
2023-06-29T12:06:34.877Z,57.89
2023-06-29T12:09:02.707Z,58.13
2023-06-29T12:11:30.762Z,58.65
2023-06-29T12:13:58.419Z,58.21
2023-06-29T12:18:58.611Z,57.96
2023-06-29T12:21:26.705Z,56.97
2023-06-29T12:23:54.554Z,56.82
2023-06-29T12:26:24.209Z,55.75
2023-06-29T12:28:51.898Z,55.04
2023-06-29T12:31:27.919Z,54.95
2023-06-29T12:33:56.169Z,55.49
2023-06-29T12:36:24.086Z,54.89
2023-06-29T12:38:52.217Z,53.57
2023-06-29T12:41:20.071Z,53.45
2023-06-29T12:43:48.593Z,52.79
2023-06-29T12:46:16.398Z,52.73
2023-06-29T12:48:46.574Z,51.68
2023-06-29T12:51:14.244Z,52.18
2023-06-29T12:53:42.692Z,52.85
2023-06-29T12:56:10.377Z,52.34
2023-06-29T12:58:38.016Z,51.76
2023-06-29T13:01:05.782Z,52.30
2023-06-29T13:03:33.660Z,52.87
2023-06-29T13:06:02.979Z,52.61
2023-06-29T13:08:31.707Z,51.59
2023-06-29T13:11:00.372Z,51.83
2023-06-29T13:13:28.213Z,50.86
2023-06-29T13:15:55.921Z,51.98
2023-06-29T13:18:23.648Z,50.75
2023-06-29T13:20:51.417Z,49.55
2023-06-29T13:23:20.451Z,50.32
2023-06-29T13:25:48.099Z,50.09
2023-06-29T13:28:15.714Z,48.93
2023-06-29T13:30:43.427Z,49.60
2023-06-29T13:33:12.445Z,49.79
2023-06-29T13:35:40.143Z,49.38
2023-06-29T13:38:07.717Z,49.77
2023-06-29T13:40:36.683Z,49.95
2023-06-29T13:43:04.348Z,49.80
2023-06-29T13:45:32.028Z,50.47
2023-06-29T13:48:00.895Z,51.04
2023-06-29T13:50:40.233Z,50.67
2023-06-29T13:53:09.514Z,50.05
2023-06-29T13:55:38.819Z,50.10
2023-06-29T13:58:06.883Z,50.17
2023-06-29T14:00:34.556Z,50.07
2023-06-29T14:03:02.503Z,49.39
2023-06-29T14:05:30.737Z,49.48
2023-06-29T14:07:58.738Z,48.78
2023-06-29T14:10:26.879Z,48.81
2023-06-29T14:12:56.005Z,48.72
2023-06-29T14:15:24.314Z,47.32
2023-06-29T14:17:52.242Z,48.06
2023-06-29T14:20:20.126Z,47.80
2023-06-29T14:22:47.737Z,47.34
2023-06-29T14:25:15.432Z,47.69
2023-06-29T14:27:43.159Z,47.63
2023-06-29T14:30:13.703Z,48.15
2023-06-29T14:32:41.877Z,48.59
2023-06-29T14:35:09.849Z,48.52
2023-06-29T14:37:37.574Z,48.68
2023-06-29T14:40:07.926Z,49.16
2023-06-29T14:42:35.619Z,49.34
2023-06-29T14:45:04.578Z,49.49
2023-06-29T14:47:34.232Z,49.73
2023-06-29T14:50:01.907Z,49.98
2023-06-29T14:52:29.600Z,50.08
2023-06-29T14:54:57.267Z,50.21
2023-06-29T14:57:24.954Z,51.07
2023-06-29T14:59:55.328Z,51.45
2023-06-29T15:02:25.418Z,51.71
2023-06-29T15:04:54.533Z,51.05
2023-06-29T15:07:23.475Z,51.65
2023-06-29T15:09:51.338Z,51.60
2023-06-29T15:12:18.980Z,50.98
2023-06-29T15:14:46.729Z,50.76
2023-06-29T15:17:14.504Z,52.12
2023-06-29T15:19:42.179Z,52.59
2023-06-29T15:22:11.229Z,52.83
2023-06-29T15:24:39.260Z,52.25
2023-06-29T15:27:07.746Z,52.18
2023-06-29T15:29:35.486Z,52.48
2023-06-29T15:32:03.280Z,51.87
2023-06-29T15:34:30.992Z,52.52
2023-06-29T15:36:58.754Z,52.11
2023-06-29T15:39:28.273Z,52.02
2023-06-29T15:41:56.326Z,52.57
2023-06-29T15:44:24.111Z,52.39
2023-06-29T15:46:53.590Z,52.17
2023-06-29T15:49:21.625Z,51.84
2023-06-29T15:51:49.526Z,51.97
2023-06-29T15:54:18.115Z,51.82
2023-06-29T15:56:47.370Z,51.62
2023-06-29T15:59:15.143Z,51.59
2023-06-29T16:01:42.847Z,50.47
2023-06-29T16:04:10.624Z,51.40
2023-06-29T16:06:38.384Z,51.49
2023-06-29T16:09:06.000Z,51.74
2023-06-29T16:11:33.603Z,51.91
2023-06-29T16:14:02.631Z,52.34
2023-06-29T16:16:30.390Z,52.59
2023-06-29T16:18:58.263Z,52.09
2023-06-29T16:21:25.921Z,52.76
2023-06-29T16:23:53.524Z,53.06
2023-06-29T16:26:21.279Z,53.38
2023-06-29T16:28:48.939Z,53.21
2023-06-29T16:31:18.048Z,53.56
2023-06-29T16:33:45.895Z,53.59
2023-06-29T16:36:13.559Z,53.57
2023-06-29T16:38:41.281Z,53.83
2023-06-29T16:41:08.970Z,53.29
2023-06-29T16:43:36.586Z,53.22
2023-06-29T16:46:04.370Z,54.16
2023-06-29T16:48:33.486Z,54.13
2023-06-29T16:51:01.192Z,53.91
2023-06-29T16:53:28.904Z,54.05
2023-06-29T16:55:57.340Z,54.51
2023-06-29T16:58:27.440Z,54.86
2023-06-29T17:00:55.118Z,54.56
2023-06-29T17:03:23.303Z,53.87
2023-06-29T17:05:52.493Z,54.93
2023-06-29T17:08:20.078Z,55.08
2023-06-29T17:10:47.744Z,55.32
2023-06-29T17:13:15.519Z,54.85
2023-06-29T17:15:43.379Z,55.41
2023-06-29T17:18:11.183Z,55.65
2023-06-29T17:20:38.976Z,55.89
2023-06-29T17:23:08.159Z,56.37
2023-06-29T17:25:35.823Z,56.50
2023-06-29T17:28:03.431Z,56.34
2023-06-29T17:30:31.004Z,56.91
2023-06-29T17:32:58.757Z,56.48
2023-06-29T17:35:26.641Z,56.92
2023-06-29T17:37:54.240Z,57.18
2023-06-29T17:40:23.223Z,57.50
2023-06-29T17:42:50.936Z,57.29
2023-06-29T17:45:18.915Z,57.75
2023-06-29T17:47:46.607Z,57.69
2023-06-29T17:50:14.792Z,58.17
2023-06-29T17:52:42.504Z,58.66
2023-06-29T17:55:10.600Z,58.47
2023-06-29T17:57:39.572Z,58.95
2023-06-29T18:00:08.983Z,58.49
2023-06-29T18:02:36.982Z,58.74
2023-06-29T18:05:05.225Z,58.59
2023-06-29T18:07:33.024Z,58.67
2023-06-29T18:10:05.525Z,59.28
2023-06-29T18:12:33.182Z,59.42
2023-06-29T18:15:02.269Z,59.17
2023-06-29T18:17:29.966Z,59.81
2023-06-29T18:19:57.667Z,59.16
2023-06-29T18:22:26.088Z,59.70
2023-06-29T18:24:53.931Z,59.74
2023-06-29T18:27:23.223Z,59.64
2023-06-29T18:29:50.868Z,59.79
2023-06-29T18:32:19.903Z,60.22
2023-06-29T18:34:47.838Z,60.00
2023-06-29T18:37:15.915Z,60.04
2023-06-29T18:39:43.694Z,59.94
2023-06-29T18:42:11.985Z,59.65
2023-06-29T18:44:41.438Z,60.13
2023-06-29T18:47:11.585Z,59.93
2023-06-29T18:49:51.557Z,60.50
2023-06-29T18:52:21.410Z,60.45
2023-06-29T18:54:49.258Z,60.94
2023-06-29T18:57:17.011Z,61.77
2023-06-29T18:59:44.716Z,61.59
2023-06-29T19:02:12.412Z,62.10
2023-06-29T19:04:41.830Z,62.16
2023-06-29T19:07:10.666Z,61.76
2023-06-29T19:09:38.383Z,61.80
2023-06-29T19:12:06.798Z,62.25
2023-06-29T19:14:34.433Z,62.74
2023-06-29T19:17:02.536Z,63.60
2023-06-29T19:19:30.229Z,63.78
2023-06-29T19:21:59.192Z,63.85
2023-06-29T19:24:26.926Z,64.23
2023-06-29T19:26:54.667Z,64.50
2023-06-29T19:29:22.348Z,64.42
2023-06-29T19:31:49.989Z,64.97
2023-06-29T19:34:17.721Z,64.78
2023-06-29T19:36:45.364Z,65.20
2023-06-29T19:39:14.569Z,65.49
2023-06-29T19:41:42.188Z,65.80
2023-06-29T19:44:09.933Z,66.06
2023-06-29T19:46:37.664Z,66.52
2023-06-29T19:49:05.431Z,66.65
2023-06-29T19:51:35.010Z,66.72
2023-06-29T19:54:02.786Z,67.10
2023-06-29T19:56:31.916Z,66.90
2023-06-29T19:59:03.106Z,66.92
2023-06-29T20:01:30.681Z,67.19
2023-06-29T20:03:58.343Z,66.59
2023-06-29T20:06:26.068Z,66.87
2023-06-29T20:08:53.812Z,67.05
2023-06-29T20:11:21.464Z,67.22
2023-06-29T20:13:50.589Z,67.62
2023-06-29T20:16:18.480Z,67.78
2023-06-29T20:18:46.435Z,68.15
2023-06-29T20:21:14.929Z,67.58
2023-06-29T20:23:42.512Z,68.08
2023-06-29T20:26:10.279Z,67.81
2023-06-29T20:28:37.882Z,68.68
2023-06-29T20:31:06.878Z,68.87
2023-06-29T20:33:34.610Z,69.18
2023-06-29T20:36:05.485Z,68.01
2023-06-29T20:38:33.409Z,69.02
2023-06-29T20:41:00.999Z,68.92
2023-06-29T20:43:28.652Z,69.17
2023-06-29T20:45:57.497Z,69.46
2023-06-29T20:48:26.530Z,69.45
2023-06-29T20:51:03.737Z,69.98
2023-06-29T20:53:39.394Z,69.79
2023-06-29T20:56:07.080Z,69.67
2023-06-29T20:58:35.884Z,69.57
2023-06-29T21:01:06.658Z,69.54
2023-06-29T21:03:35.891Z,68.77
2023-06-29T21:06:03.577Z,69.66
2023-06-29T21:08:31.249Z,69.68
2023-06-29T21:10:58.983Z,69.87
2023-06-29T21:13:27.141Z,70.22
2023-06-29T21:15:55.176Z,71.20
2023-06-29T21:18:23.913Z,70.77
2023-06-29T21:20:53.626Z,70.88
2023-06-29T21:23:21.697Z,70.81
2023-06-29T21:25:49.766Z,70.64
2023-06-29T21:28:17.959Z,70.97
2023-06-29T21:30:46.367Z,70.48
2023-06-29T21:33:15.268Z,71.11
2023-06-29T21:35:44.292Z,70.87
2023-06-29T21:38:14.355Z,70.86
2023-06-29T21:40:42.097Z,70.61
2023-06-29T21:43:09.876Z,70.98
2023-06-29T21:45:37.593Z,71.19
2023-06-29T21:48:06.234Z,70.83
2023-06-29T21:50:34.774Z,70.69
2023-06-29T21:53:03.234Z,70.35
2023-06-29T21:55:32.462Z,70.70
2023-06-29T21:58:00.156Z,70.19
2023-06-29T22:00:28.001Z,70.37
2023-06-29T22:02:56.722Z,70.40
2023-06-29T22:05:24.925Z,70.32
2023-06-29T22:07:52.601Z,70.17
2023-06-29T22:10:20.783Z,70.56
2023-06-29T22:12:49.886Z,71.06
2023-06-29T22:15:18.750Z,71.09
2023-06-29T22:17:50.224Z,71.29
2023-06-29T22:20:23.441Z,71.16
2023-06-29T22:22:51.803Z,71.72
2023-06-29T22:25:19.439Z,72.43
2023-06-29T22:27:49.252Z,72.14
2023-06-29T22:30:17.141Z,72.60
2023-06-29T22:32:52.098Z,72.88
2023-06-29T22:35:20.571Z,73.35
2023-06-29T22:37:48.463Z,72.93
2023-06-29T22:40:16.362Z,72.83
2023-06-29T22:42:44.098Z,72.97
2023-06-29T22:45:13.889Z,72.93
2023-06-29T22:47:41.776Z,73.26
2023-06-29T22:50:10.001Z,73.15
2023-06-29T22:52:37.826Z,72.75
2023-06-29T22:55:06.143Z,72.58
2023-06-29T22:57:34.025Z,72.98
2023-06-29T23:00:01.681Z,73.63
2023-06-29T23:02:30.991Z,73.28
2023-06-29T23:04:58.696Z,73.07
2023-06-29T23:07:26.485Z,73.08
2023-06-29T23:09:54.181Z,73.39
2023-06-29T23:12:22.847Z,73.17
2023-06-29T23:14:51.701Z,73.60
2023-06-29T23:17:23.151Z,73.86
2023-06-29T23:19:52.274Z,73.57
2023-06-29T23:22:22.109Z,73.30
2023-06-29T23:24:54.089Z,74.04
2023-06-29T23:27:22.118Z,73.54
2023-06-29T23:29:49.704Z,73.91
2023-06-29T23:32:17.404Z,74.44
2023-06-29T23:34:45.030Z,74.40
2023-06-29T23:37:14.091Z,74.98
2023-06-29T23:39:42.097Z,75.72
2023-06-29T23:42:10.030Z,75.79
2023-06-29T23:44:41.518Z,77.06
2023-06-29T23:47:10.483Z,77.97
2023-06-29T23:49:38.407Z,78.90
2023-06-29T23:52:10.341Z,79.43
2023-06-29T23:54:41.516Z,79.35
2023-06-29T23:57:09.210Z,80.44
2023-06-29T23:59:36.917Z,81.62
